createdAt,value
2018-04-12T00:01:29.030Z,13.10
2018-04-12T00:03:57.368Z,12.90
2018-04-12T00:06:24.961Z,12.80
2018-04-12T00:08:53.318Z,12.60
2018-04-12T00:11:20.893Z,12.60
2018-04-12T00:13:48.450Z,12.60
2018-04-12T00:16:16.034Z,12.60
2018-04-12T00:18:43.597Z,12.90
2018-04-12T00:21:12.058Z,12.90
2018-04-12T00:23:39.617Z,12.90
2018-04-12T00:26:08.720Z,12.60
2018-04-12T00:28:36.313Z,12.60
2018-04-12T00:31:03.941Z,12.50
2018-04-12T00:33:31.538Z,12.30
2018-04-12T00:35:59.108Z,12.50
2018-04-12T00:38:26.861Z,12.40
2018-04-12T00:40:54.424Z,12.20
2018-04-12T00:43:22.039Z,12.00
2018-04-12T00:45:50.504Z,12.20
2018-04-12T00:48:18.147Z,12.20
2018-04-12T00:50:45.778Z,12.40
2018-04-12T00:53:13.485Z,12.30
2018-04-12T00:55:41.901Z,12.10
2018-04-12T00:58:09.582Z,12.10
2018-04-12T01:00:37.143Z,12.00
2018-04-12T01:03:04.736Z,12.30
2018-04-12T01:05:32.289Z,12.30
2018-04-12T01:07:59.861Z,12.40
2018-04-12T01:10:28.948Z,12.40
2018-04-12T01:12:56.512Z,12.40
2018-04-12T01:15:24.186Z,12.30
2018-04-12T01:17:51.734Z,12.40
2018-04-12T01:20:20.841Z,12.40
2018-04-12T01:22:48.397Z,12.40
2018-04-12T01:25:15.967Z,12.20
2018-04-12T01:27:44.463Z,12.30
2018-04-12T01:30:12.021Z,12.30
2018-04-12T01:32:39.589Z,12.20
2018-04-12T01:35:07.149Z,12.10
2018-04-12T01:37:34.809Z,11.90
2018-04-12T01:40:02.365Z,12.10
2018-04-12T01:42:30.070Z,12.20
2018-04-12T01:44:57.613Z,12.00
2018-04-12T01:47:25.169Z,12.00
2018-04-12T01:49:52.749Z,12.00
2018-04-12T01:52:20.309Z,12.10
2018-04-12T01:54:47.881Z,12.10
2018-04-12T01:57:15.449Z,12.10
2018-04-12T01:59:43.806Z,12.10
2018-04-12T02:02:11.404Z,12.10
2018-04-12T02:04:38.985Z,12.10
2018-04-12T02:07:06.582Z,12.00
2018-04-12T02:09:34.237Z,12.00
2018-04-12T02:12:01.788Z,12.20
2018-04-12T02:14:29.469Z,12.20
2018-04-12T02:16:57.788Z,12.00
2018-04-12T02:19:25.346Z,12.00
2018-04-12T02:21:52.929Z,11.90
2018-04-12T02:24:20.481Z,11.80
2018-04-12T02:26:48.127Z,11.80
2018-04-12T02:29:15.761Z,11.80
2018-04-12T02:31:44.114Z,11.70
2018-04-12T02:34:12.501Z,11.50
2018-04-12T02:36:40.921Z,11.70
2018-04-12T02:39:08.515Z,11.70
2018-04-12T02:41:36.102Z,11.80
2018-04-12T02:44:04.480Z,11.40
2018-04-12T02:46:32.850Z,11.40
2018-04-12T02:49:00.492Z,11.40
2018-04-12T02:51:28.081Z,11.60
2018-04-12T02:53:56.424Z,11.40
2018-04-12T02:56:24.022Z,11.30
2018-04-12T02:58:52.477Z,11.50
2018-04-12T03:01:20.030Z,11.50
2018-04-12T03:03:47.646Z,11.40
2018-04-12T03:06:15.377Z,11.40
2018-04-12T03:08:43.941Z,11.20
2018-04-12T03:11:12.328Z,11.30
2018-04-12T03:13:39.905Z,11.30
2018-04-12T03:16:08.320Z,11.40
2018-04-12T03:18:35.969Z,11.40
2018-04-12T03:21:03.556Z,11.20
2018-04-12T03:23:31.137Z,11.10
2018-04-12T03:25:59.563Z,11.20
2018-04-12T03:28:27.141Z,11.30
2018-04-12T03:30:54.841Z,11.30
2018-04-12T03:33:23.162Z,11.30
2018-04-12T03:35:50.749Z,11.30
2018-04-12T03:38:18.305Z,11.30
2018-04-12T03:40:45.901Z,11.20
2018-04-12T03:43:14.312Z,11.30
2018-04-12T03:45:41.911Z,11.30
2018-04-12T03:48:09.469Z,11.20
2018-04-12T03:50:37.098Z,11.00
2018-04-12T03:53:04.683Z,11.10
2018-04-12T03:55:32.233Z,11.00
2018-04-12T03:57:59.830Z,11.10
2018-04-12T04:00:28.199Z,11.30
2018-04-12T04:02:56.013Z,11.30
2018-04-12T04:05:23.575Z,11.20
2018-04-12T04:07:51.166Z,11.10
2018-04-12T04:10:18.777Z,11.10
2018-04-12T04:12:46.372Z,11.10
2018-04-12T04:15:25.826Z,11.00
2018-04-12T04:18:06.031Z,11.10
2018-04-12T04:20:45.464Z,11.00
2018-04-12T04:23:13.909Z,11.20
2018-04-12T04:25:41.482Z,11.10
2018-04-12T04:28:09.840Z,11.20
2018-04-12T04:30:38.177Z,11.20
2018-04-12T04:33:07.623Z,11.20
2018-04-12T04:35:35.221Z,11.20
2018-04-12T04:38:02.778Z,11.20
2018-04-12T04:40:30.360Z,11.20
2018-04-12T04:42:58.116Z,11.20
2018-04-12T04:45:25.722Z,11.30
2018-04-12T04:47:53.283Z,11.30
2018-04-12T04:50:21.637Z,11.40
2018-04-12T04:52:49.192Z,11.40
2018-04-12T04:55:16.926Z,11.50
2018-04-12T04:57:44.490Z,11.30
2018-04-12T05:00:12.093Z,11.10
2018-04-12T05:02:39.665Z,11.00
2018-04-12T05:05:08.003Z,11.00
2018-04-12T05:07:35.603Z,11.00
2018-04-12T05:10:03.961Z,11.00
2018-04-12T05:12:31.541Z,11.00
2018-04-12T05:14:59.883Z,11.00
2018-04-12T05:17:27.477Z,11.00
2018-04-12T05:19:55.839Z,11.30
2018-04-12T05:22:24.193Z,11.20
2018-04-12T05:24:51.758Z,11.10
2018-04-12T05:27:20.354Z,11.40
2018-04-12T05:29:48.006Z,11.30
2018-04-12T05:32:15.557Z,11.20
2018-04-12T05:34:43.158Z,11.20
2018-04-12T05:37:10.725Z,11.20
2018-04-12T05:39:38.290Z,11.40
2018-04-12T05:42:05.885Z,11.30
2018-04-12T05:44:33.489Z,11.40
2018-04-12T05:47:01.844Z,11.80
2018-04-12T05:49:29.443Z,11.80
2018-04-12T05:51:57.035Z,12.10
2018-04-12T05:54:24.629Z,12.30
2018-04-12T05:56:53.150Z,12.50
2018-04-12T05:59:20.729Z,12.40
2018-04-12T06:01:48.317Z,12.50
2018-04-12T06:04:16.041Z,12.60
2018-04-12T06:06:43.645Z,12.60
2018-04-12T06:09:12.090Z,12.70
2018-04-12T06:11:39.778Z,12.70
2018-04-12T06:14:07.525Z,12.30
2018-04-12T06:16:35.093Z,12.20
2018-04-12T06:19:02.761Z,12.10
2018-04-12T06:21:30.405Z,12.20
2018-04-12T06:23:58.007Z,12.20
2018-04-12T06:26:26.333Z,12.40
2018-04-12T06:28:54.017Z,12.40
2018-04-12T06:31:21.662Z,12.60
2018-04-12T06:33:49.303Z,12.80
2018-04-12T06:36:17.629Z,13.80
2018-04-12T06:38:45.961Z,14.70
2018-04-12T06:41:13.552Z,14.70
2018-04-12T06:43:41.142Z,15.20
2018-04-12T06:46:08.831Z,16.00
2018-04-12T06:48:36.489Z,16.20
2018-04-12T06:51:04.189Z,15.70
2018-04-12T06:53:31.758Z,15.20
2018-04-12T06:56:00.158Z,14.60
2018-04-12T06:58:27.767Z,14.60
2018-04-12T07:00:55.354Z,15.40
2018-04-12T07:03:23.820Z,16.30
2018-04-12T07:05:51.443Z,16.20
2018-04-12T07:08:19.029Z,16.80
2018-04-12T07:10:46.598Z,16.70
2018-04-12T07:13:14.209Z,17.70
2018-04-12T07:15:41.789Z,18.20
2018-04-12T07:18:09.584Z,17.60
2018-04-12T07:20:37.949Z,17.00
2018-04-12T07:23:05.512Z,16.90
2018-04-12T07:25:33.141Z,17.20
2018-04-12T07:28:00.715Z,18.00
2018-04-12T07:30:28.301Z,19.40
2018-04-12T07:32:56.009Z,21.50
2018-04-12T07:35:23.606Z,20.60
2018-04-12T07:37:51.162Z,19.60
2018-04-12T07:40:18.861Z,18.20
2018-04-12T07:42:47.194Z,16.80
2018-04-12T07:45:14.758Z,16.70
2018-04-12T07:47:42.346Z,16.20
2018-04-12T07:50:10.689Z,15.70
2018-04-12T07:52:38.295Z,15.70
2018-04-12T07:55:05.918Z,16.00
2018-04-12T07:57:33.536Z,16.40
2018-04-12T08:00:01.115Z,16.60
2018-04-12T08:02:28.722Z,16.80
2018-04-12T08:04:57.109Z,18.00
2018-04-12T08:07:25.453Z,18.30
2018-04-12T08:09:53.037Z,18.30
2018-04-12T08:12:21.419Z,17.90
2018-04-12T08:14:49.774Z,17.80
2018-04-12T08:17:17.346Z,17.80
2018-04-12T08:19:45.673Z,16.90
2018-04-12T08:22:13.423Z,16.80
2018-04-12T08:24:41.009Z,16.60
2018-04-12T08:27:08.597Z,16.30
2018-04-12T08:29:37.029Z,16.40
2018-04-12T08:32:04.616Z,16.40
2018-04-12T08:34:33.703Z,16.50
2018-04-12T08:37:01.282Z,16.50
2018-04-12T08:39:28.838Z,16.80
2018-04-12T08:41:56.430Z,16.90
2018-04-12T08:44:24.100Z,17.10
2018-04-12T08:46:52.599Z,17.20
2018-04-12T08:49:20.173Z,17.50
2018-04-12T08:51:47.876Z,17.50
2018-04-12T08:54:16.246Z,17.00
2018-04-12T08:56:44.617Z,17.00
2018-04-12T08:59:12.193Z,17.00
2018-04-12T09:01:40.513Z,17.10
2018-04-12T09:04:08.149Z,17.10
2018-04-12T09:06:35.741Z,17.40
2018-04-12T09:09:03.286Z,17.50
2018-04-12T09:11:30.933Z,17.60
2018-04-12T09:13:58.546Z,17.60
2018-04-12T09:16:26.152Z,17.70
2018-04-12T09:18:53.928Z,17.70
2018-04-12T09:21:21.514Z,17.60
2018-04-12T09:23:49.137Z,17.90
2018-04-12T09:26:16.814Z,18.10
2018-04-12T09:28:44.450Z,18.70
2018-04-12T09:31:12.029Z,18.50
2018-04-12T09:33:39.617Z,18.80
2018-04-12T09:36:07.195Z,19.40
2018-04-12T09:38:35.661Z,19.90
2018-04-12T09:41:03.228Z,19.90
2018-04-12T09:43:31.579Z,20.10
2018-04-12T09:45:59.146Z,20.10
2018-04-12T09:48:26.701Z,19.50
2018-04-12T09:50:54.324Z,18.90
2018-04-12T09:53:21.911Z,18.70
2018-04-12T09:55:49.472Z,18.90
2018-04-12T09:58:17.205Z,19.00
2018-04-12T10:00:50.522Z,18.60
2018-04-12T10:03:18.901Z,18.80
2018-04-12T10:05:52.043Z,18.70
2018-04-12T10:08:25.170Z,18.90
2018-04-12T10:10:52.761Z,19.10
2018-04-12T10:13:20.466Z,18.80
2018-04-12T10:15:48.128Z,18.70
2018-04-12T10:18:15.707Z,18.80
2018-04-12T10:20:43.265Z,19.40
2018-04-12T10:23:10.916Z,20.00
2018-04-12T10:25:38.465Z,20.10
2018-04-12T10:28:06.071Z,20.80
2018-04-12T10:30:33.627Z,21.80
2018-04-12T10:33:01.454Z,21.90
2018-04-12T10:35:29.109Z,20.90
2018-04-12T10:37:56.667Z,20.60
2018-04-12T10:40:24.273Z,20.30
2018-04-12T10:42:51.836Z,20.90
2018-04-12T10:45:19.413Z,22.60
2018-04-12T10:47:47.733Z,22.80
2018-04-12T10:50:15.449Z,22.80
2018-04-12T10:52:43.769Z,23.20
2018-04-12T10:55:11.509Z,23.20
2018-04-12T10:57:39.084Z,23.20
2018-04-12T11:00:06.678Z,22.10
2018-04-12T11:02:34.242Z,22.50
2018-04-12T11:05:01.827Z,23.30
2018-04-12T11:07:30.165Z,22.30
2018-04-12T11:09:57.806Z,22.30
2018-04-12T11:12:25.383Z,23.30
2018-04-12T11:14:52.976Z,23.10
2018-04-12T11:17:20.593Z,23.50
2018-04-12T11:19:48.258Z,23.80
2018-04-12T11:22:15.825Z,21.80
2018-04-12T11:24:43.421Z,21.30
2018-04-12T11:27:11.799Z,21.80
2018-04-12T11:29:39.422Z,21.80
2018-04-12T11:32:07.013Z,21.80
2018-04-12T11:34:35.371Z,21.70
2018-04-12T11:37:02.951Z,21.70
2018-04-12T11:39:31.329Z,21.70
2018-04-12T11:41:59.709Z,22.30
2018-04-12T11:44:27.312Z,22.20
2018-04-12T11:46:54.880Z,22.00
2018-04-12T11:49:22.465Z,22.00
2018-04-12T11:51:50.987Z,21.70
2018-04-12T11:54:18.569Z,21.70
2018-04-12T11:56:46.267Z,21.90
2018-04-12T11:59:13.954Z,22.20
2018-04-12T12:01:41.556Z,22.10
2018-04-12T12:04:09.129Z,21.80
2018-04-12T12:06:36.953Z,21.60
2018-04-12T12:09:04.502Z,21.70
2018-04-12T12:11:32.249Z,21.80
2018-04-12T12:14:00.602Z,22.00
2018-04-12T12:16:28.160Z,22.00
2018-04-12T12:18:55.763Z,22.00
2018-04-12T12:21:23.359Z,21.70
2018-04-12T12:23:51.186Z,21.50
2018-04-12T12:26:18.714Z,21.30
2018-04-12T12:28:47.163Z,21.30
2018-04-12T12:31:14.802Z,21.30
2018-04-12T12:33:42.430Z,21.30
2018-04-12T12:36:10.030Z,21.20
2018-04-12T12:38:37.601Z,20.90
2018-04-12T12:41:05.206Z,20.50
2018-04-12T12:43:32.769Z,20.90
2018-04-12T12:46:00.365Z,21.40
2018-04-12T12:48:28.024Z,21.50
2018-04-12T12:50:55.761Z,21.40
2018-04-12T12:53:23.324Z,21.40
2018-04-12T12:55:50.982Z,21.40
2018-04-12T12:58:19.277Z,21.40
2018-04-12T13:00:47.121Z,21.30
2018-04-12T13:03:14.701Z,21.30
2018-04-12T13:05:42.514Z,21.40
2018-04-12T13:08:10.990Z,21.40
2018-04-12T13:10:38.792Z,21.40
2018-04-12T13:13:06.406Z,21.60
2018-04-12T13:15:34.143Z,21.80
2018-04-12T13:18:01.879Z,21.50
2018-04-12T13:20:29.455Z,21.50
2018-04-12T13:22:57.183Z,21.30
2018-04-12T13:25:24.738Z,21.10
2018-04-12T13:27:52.458Z,21.30
2018-04-12T13:30:20.142Z,21.60
2018-04-12T13:32:48.495Z,21.40
2018-04-12T13:35:16.093Z,21.40
2018-04-12T13:37:43.721Z,21.00
2018-04-12T13:40:11.319Z,21.00
2018-04-12T13:42:38.912Z,21.30
2018-04-12T13:45:06.551Z,21.00
2018-04-12T13:47:34.122Z,20.80
2018-04-12T13:50:01.712Z,20.80
2018-04-12T13:52:29.302Z,21.00
2018-04-12T13:54:57.668Z,21.40
2018-04-12T13:57:25.996Z,21.00
2018-04-12T13:59:53.604Z,21.00
2018-04-12T14:02:21.941Z,20.70
2018-04-12T14:04:49.537Z,20.60
2018-04-12T14:07:17.869Z,21.70
2018-04-12T14:09:45.481Z,21.70
2018-04-12T14:12:13.833Z,21.70
2018-04-12T14:14:41.489Z,21.70
2018-04-12T14:17:09.103Z,22.10
2018-04-12T14:19:37.408Z,21.90
2018-04-12T14:22:05.009Z,21.90
2018-04-12T14:24:33.333Z,22.00
2018-04-12T14:27:00.963Z,22.00
2018-04-12T14:29:28.592Z,21.80
2018-04-12T14:31:56.149Z,21.50
2018-04-12T14:34:23.734Z,21.50
2018-04-12T14:36:51.470Z,21.40
2018-04-12T14:39:19.053Z,21.50
2018-04-12T14:41:46.766Z,21.60
2018-04-12T14:44:14.452Z,21.50
2018-04-12T14:46:42.156Z,21.50
2018-04-12T14:49:09.749Z,21.70
2018-04-12T14:51:37.341Z,21.70
2018-04-12T14:54:05.735Z,21.70
2018-04-12T14:56:33.297Z,21.70
2018-04-12T14:59:00.883Z,21.60
2018-04-12T15:01:28.493Z,21.60
2018-04-12T15:03:56.840Z,21.50
2018-04-12T15:06:24.501Z,21.50
2018-04-12T15:08:52.076Z,21.70
2018-04-12T15:11:19.656Z,21.60
2018-04-12T15:13:48.002Z,21.40
2018-04-12T15:16:15.785Z,21.40
2018-04-12T15:18:44.127Z,21.40
2018-04-12T15:21:11.744Z,21.40
2018-04-12T15:23:39.447Z,21.50
2018-04-12T15:26:07.021Z,21.60
2018-04-12T15:28:34.741Z,21.50
2018-04-12T15:31:02.368Z,21.60
2018-04-12T15:33:30.714Z,22.00
2018-04-12T15:35:58.394Z,22.00
2018-04-12T15:38:25.993Z,22.20
2018-04-12T15:40:53.669Z,22.30
2018-04-12T15:43:21.226Z,22.10
2018-04-12T15:45:48.991Z,22.00
2018-04-12T15:48:16.572Z,21.80
2018-04-12T15:50:44.202Z,21.80
2018-04-12T15:53:11.781Z,21.70
2018-04-12T15:55:39.390Z,21.70
2018-04-12T15:58:06.981Z,22.00
2018-04-12T16:00:34.633Z,22.00
2018-04-12T16:03:02.217Z,22.20
2018-04-12T16:05:29.811Z,21.90
2018-04-12T16:07:57.377Z,21.80
2018-04-12T16:10:25.750Z,21.60
2018-04-12T16:12:54.152Z,21.50
2018-04-12T16:15:21.777Z,21.40
2018-04-12T16:17:49.362Z,21.30
2018-04-12T16:20:17.724Z,21.00
2018-04-12T16:22:46.101Z,20.90
2018-04-12T16:25:14.421Z,20.80
2018-04-12T16:27:42.006Z,20.80
2018-04-12T16:30:09.600Z,20.80
2018-04-12T16:32:37.969Z,20.80
2018-04-12T16:35:05.577Z,20.70
2018-04-12T16:37:56.457Z,20.80
2018-04-12T16:40:27.080Z,20.90
2018-04-12T16:42:54.641Z,21.00
2018-04-12T16:45:22.262Z,21.10
2018-04-12T16:47:49.825Z,21.00
2018-04-12T16:50:17.607Z,20.90
2018-04-12T16:52:45.942Z,20.80
2018-04-12T16:55:13.556Z,20.80
2018-04-12T16:57:42.001Z,20.70
2018-04-12T17:00:09.569Z,20.70
2018-04-12T17:02:37.154Z,20.50
2018-04-12T17:05:04.721Z,20.40
2018-04-12T17:07:32.329Z,20.50
2018-04-12T17:09:59.924Z,20.40
2018-04-12T17:12:28.306Z,20.30
2018-04-12T17:14:56.651Z,20.40
2018-04-12T17:17:24.241Z,20.40
2018-04-12T17:19:52.689Z,20.40
2018-04-12T17:22:20.269Z,20.40
2018-04-12T17:24:48.613Z,20.40
2018-04-12T17:27:16.220Z,20.30
2018-04-12T17:29:43.794Z,20.40
2018-04-12T17:32:11.465Z,20.30
2018-04-12T17:34:39.057Z,20.30
2018-04-12T17:37:06.837Z,20.20
2018-04-12T17:39:35.189Z,20.10
2018-04-12T17:42:02.778Z,20.00
2018-04-12T17:44:31.144Z,19.80
2018-04-12T17:46:58.710Z,19.80
2018-04-12T17:49:27.053Z,19.80
2018-04-12T17:51:54.646Z,19.70
2018-04-12T17:54:23.040Z,19.70
2018-04-12T17:56:50.722Z,19.60
2018-04-12T17:59:18.297Z,19.60
2018-04-12T18:01:45.916Z,19.50
2018-04-12T18:04:14.450Z,19.40
2018-04-12T18:06:42.009Z,19.40
2018-04-12T18:09:09.596Z,19.30
2018-04-12T18:11:37.358Z,19.30
2018-04-12T18:14:04.941Z,19.30
2018-04-12T18:16:32.513Z,19.20
2018-04-12T18:19:00.112Z,19.20
2018-04-12T18:21:27.674Z,19.10
2018-04-12T18:23:55.270Z,19.00
2018-04-12T18:26:23.659Z,18.50
2018-04-12T18:28:51.277Z,18.50
2018-04-12T18:31:18.841Z,18.40
2018-04-12T18:33:46.647Z,18.20
2018-04-12T18:36:14.254Z,17.90
2018-04-12T18:38:42.049Z,17.70
2018-04-12T18:41:10.429Z,17.90
2018-04-12T18:43:38.012Z,17.90
2018-04-12T18:46:05.630Z,17.80
2018-04-12T18:48:33.202Z,17.70
2018-04-12T18:51:01.589Z,16.90
2018-04-12T18:53:29.939Z,16.70
2018-04-12T18:55:57.527Z,16.70
2018-04-12T18:58:25.141Z,16.60
2018-04-12T19:00:52.830Z,16.70
2018-04-12T19:03:21.390Z,16.70
2018-04-12T19:05:48.980Z,16.60
2018-04-12T19:08:17.377Z,16.50
2018-04-12T19:10:45.046Z,16.50
2018-04-12T19:13:12.667Z,16.30
2018-04-12T19:15:41.049Z,16.30
2018-04-12T19:18:09.442Z,16.50
2018-04-12T19:20:37.099Z,16.50
2018-04-12T19:23:05.440Z,16.70
2018-04-12T19:25:33.810Z,16.70
2018-04-12T19:28:01.461Z,16.70
2018-04-12T19:30:29.106Z,16.70
2018-04-12T19:32:56.698Z,16.40
2018-04-12T19:35:25.086Z,16.20
2018-04-12T19:37:52.658Z,16.20
2018-04-12T19:40:21.005Z,16.30
2018-04-12T19:42:48.738Z,16.30
2018-04-12T19:45:16.390Z,16.20
2018-04-12T19:47:44.002Z,16.30
2018-04-12T19:50:11.654Z,16.30
2018-04-12T19:52:39.365Z,16.30
2018-04-12T19:55:06.937Z,16.20
2018-04-12T19:57:34.666Z,16.20
2018-04-12T20:00:03.045Z,16.10
2018-04-12T20:02:32.173Z,16.20
2018-04-12T20:04:59.744Z,16.20
2018-04-12T20:07:27.346Z,16.10
2018-04-12T20:09:55.733Z,16.00
2018-04-12T20:12:24.143Z,16.10
2018-04-12T20:14:51.879Z,16.10
2018-04-12T20:17:19.562Z,16.10
2018-04-12T20:19:47.156Z,16.00
2018-04-12T20:22:15.527Z,15.90
2018-04-12T20:24:43.149Z,15.90
2018-04-12T20:27:10.759Z,15.90
2018-04-12T20:29:38.385Z,15.70
2018-04-12T20:32:05.998Z,15.60
2018-04-12T20:34:34.463Z,15.60
2018-04-12T20:37:02.031Z,15.50
2018-04-12T20:39:30.486Z,15.40
2018-04-12T20:41:58.053Z,15.40
2018-04-12T20:44:25.640Z,15.40
2018-04-12T20:46:54.146Z,15.40
2018-04-12T20:49:21.734Z,15.30
2018-04-12T20:51:49.364Z,15.40
2018-04-12T20:54:16.946Z,15.30
2018-04-12T20:56:44.548Z,15.00
2018-04-12T20:59:12.908Z,15.10
2018-04-12T21:01:40.514Z,15.20
2018-04-12T21:04:08.089Z,15.20
2018-04-12T21:06:35.837Z,15.20
2018-04-12T21:09:03.401Z,15.10
2018-04-12T21:11:31.033Z,14.90
2018-04-12T21:13:59.404Z,14.20
2018-04-12T21:16:27.797Z,14.10
2018-04-12T21:18:55.375Z,14.00
2018-04-12T21:21:22.946Z,13.90
2018-04-12T21:23:50.593Z,13.80
2018-04-12T21:26:18.212Z,14.00
2018-04-12T21:28:45.777Z,14.20
2018-04-12T21:31:14.121Z,14.20
2018-04-12T21:33:41.705Z,14.20
2018-04-12T21:36:10.029Z,14.10
2018-04-12T21:38:37.780Z,14.10
2018-04-12T21:41:05.345Z,14.10
2018-04-12T21:43:32.901Z,14.10
2018-04-12T21:46:00.503Z,14.20
2018-04-12T21:48:28.857Z,13.50
2018-04-12T21:50:56.449Z,13.50
2018-04-12T21:53:24.085Z,13.60
2018-04-12T21:55:51.665Z,13.80
2018-04-12T21:58:19.305Z,13.90
2018-04-12T22:00:46.906Z,13.80
2018-04-12T22:03:15.251Z,13.70
2018-04-12T22:05:44.392Z,13.30
2018-04-12T22:08:12.087Z,13.30
2018-04-12T22:10:39.661Z,13.10
2018-04-12T22:13:07.257Z,13.00
2018-04-12T22:15:35.618Z,12.80
2018-04-12T22:18:03.965Z,13.10
2018-04-12T22:20:31.529Z,13.10
2018-04-12T22:22:59.119Z,13.30
2018-04-12T22:25:27.451Z,13.10
2018-04-12T22:27:55.033Z,13.10
2018-04-12T22:30:22.589Z,12.80
2018-04-12T22:32:50.206Z,12.60
2018-04-12T22:35:17.825Z,12.50
2018-04-12T22:37:46.190Z,12.40
2018-04-12T22:40:14.522Z,12.50
2018-04-12T22:42:42.128Z,12.50
2018-04-12T22:45:09.842Z,12.70
2018-04-12T22:47:37.410Z,12.70
2018-04-12T22:50:05.108Z,12.50
2018-04-12T22:52:32.709Z,12.30
2018-04-12T22:55:00.434Z,12.10
2018-04-12T22:57:28.761Z,12.10
2018-04-12T22:59:56.476Z,12.10
2018-04-12T23:02:24.122Z,12.00
2018-04-12T23:04:51.697Z,12.00
2018-04-12T23:07:20.037Z,11.90
2018-04-12T23:09:47.613Z,11.80
2018-04-12T23:12:15.958Z,11.70
2018-04-12T23:14:43.525Z,11.70
2018-04-12T23:17:11.213Z,11.70
2018-04-12T23:19:38.768Z,11.70
2018-04-12T23:22:06.437Z,11.80
2018-04-12T23:24:34.099Z,11.90
2018-04-12T23:27:02.481Z,12.10
2018-04-12T23:29:30.852Z,11.80
2018-04-12T23:31:58.441Z,11.80
2018-04-12T23:34:26.010Z,11.60
2018-04-12T23:36:53.602Z,11.50
2018-04-12T23:39:21.190Z,11.50
2018-04-12T23:41:48.781Z,11.50
2018-04-12T23:44:16.354Z,11.40
2018-04-12T23:46:44.037Z,11.40
2018-04-12T23:49:11.629Z,11.30
2018-04-12T23:51:39.202Z,11.30
2018-04-12T23:54:07.611Z,11.40
2018-04-12T23:56:35.193Z,11.30
2018-04-12T23:59:02.795Z,11.50
